Terminal Aerodrome Forecast
Issued by NWS

Home | Current Version | Previous Version | Text Only | Print | Product List | Glossary On
Versions: 1 2 3 4 5 6 7 8 9 10 11 12 13 14 15 16
000
FTUS43 KMPX 050520
TAFRNH
TAF
KRNH 050520Z 0506/0606 19005KT 5SM HZ FEW070
      TEMPO 0509/0513 2SM HZ BR
     FM051400 18010KT P6SM FEW250
     FM051600 18013G21KT P6SM SCT250=

USA.gov is the U.S. government's official web portal to all federal, state and local government web resources and services.